^^
Station Historical Data
Daily Summary for January 29, 2017 Units:  English    Metric   Both
« Previous Day
Next Day »
Daily Weekly Monthly Yearly Custom
  High: Low: Average:
Temperature: 39.4 °F 28.6 °F 33.7 °F
Dew Point: 24.8 °F 16.5 °F 22.9 °F
Humidity: 80 % 47 % 65 %
Wind Speed: 12.9 mph 0.0 mph 2.7 mph
Wind Gust: 20.0 mph - -
Wind:- - WSW
Pressure: 29.79 in 29.71 in -
Precipitation: 0.00 in    
Historical Graphs
 
 
Tabular Data for January 29, 2017
Time Temperature Dew Point Pressure Wind Wind Speed Wind Gust Humidity Rainfall Rate (Hourly) solar Conditions
00:03 31.7 °F 24.4 °F 29.73 in Calm     74 % 0.00 in 0.0 W/m2 CLR
00:08 31.6 °F 24.6 °F 29.73 in Calm     75 % 0.00 in 0.0 W/m2 CLR
00:13 31.4 °F 24.4 °F 29.72 in Calm     75 % 0.00 in 0.0 W/m2 CLR
00:18 31.3 °F 24.3 °F 29.72 in Calm     75 % 0.00 in 0.0 W/m2 CLR
00:23 31.1 °F 24.1 °F 29.72 in Calm     75 % 0.00 in 0.0 W/m2 CLR
00:28 30.8 °F 23.8 °F 29.71 in Calm     75 % 0.00 in 0.0 W/m2 CLR
00:33 30.5 °F 23.5 °F 29.71 in Calm     75 % 0.00 in 0.0 W/m2 CLR
00:38 30.0 °F 23.0 °F 29.71 in Calm     75 % 0.00 in 0.0 W/m2 CLR
00:43 29.7 °F 23.1 °F 29.71 in Calm     76 % 0.00 in 0.0 W/m2 CLR
00:48 29.5 °F 22.9 °F 29.71 in Calm     76 % 0.00 in 0.0 W/m2 CLR
00:53 29.2 °F 22.6 °F 29.72 in Calm     76 % 0.00 in 0.0 W/m2 CLR
00:58 28.9 °F 22.6 °F 29.71 in Calm     77 % 0.00 in 0.0 W/m2 CLR
01:03 28.7 °F 23.0 °F 29.72 in Calm     79 % 0.00 in 0.0 W/m2 CLR
01:08 28.6 °F 22.9 °F 29.72 in West 1.3 mph 2.3 mph 79 % 0.00 in 0.0 W/m2 CLR
01:13 29.4 °F 24.0 °F 29.72 in SW 1.7 mph 3.5 mph 80 % 0.00 in 0.0 W/m2 CLR
01:18 30.2 °F 24.5 °F 29.72 in SSW 2.3 mph 4.6 mph 79 % 0.00 in 0.0 W/m2 CLR
01:23 30.8 °F 24.4 °F 29.72 in SSW 2.8 mph 3.5 mph 77 % 0.00 in 0.0 W/m2 CLR
01:28 31.2 °F 24.5 °F 29.72 in SSW 1.6 mph 2.3 mph 76 % 0.00 in 0.0 W/m2 CLR
01:33 31.2 °F 24.2 °F 29.72 in SSW 1.1 mph 2.3 mph 75 % 0.00 in 0.0 W/m2 CLR
01:38 31.2 °F 23.9 °F 29.72 in SSW 0.9 mph 2.3 mph 74 % 0.00 in 0.0 W/m2 CLR
01:43 31.3 °F 24.0 °F 29.72 in SSW 1.4 mph 2.3 mph 74 % 0.00 in 0.0 W/m2 CLR
01:48 31.5 °F 24.2 °F 29.72 in SSW 0.3 mph 1.2 mph 74 % 0.00 in 0.0 W/m2 CLR
01:53 31.6 °F 23.9 °F 29.72 in SSW 0.6 mph 2.3 mph 73 % 0.00 in 0.0 W/m2 CLR
01:58 31.6 °F 23.9 °F 29.72 in SSW 1.3 mph 2.3 mph 73 % 0.00 in 0.0 W/m2 CLR
02:03 31.6 °F 23.9 °F 29.72 in Calm   2.3 mph 73 % 0.00 in 0.0 W/m2 CLR
02:08 31.8 °F 24.1 °F 29.73 in SSW 1.6 mph 3.5 mph 73 % 0.00 in 0.0 W/m2 CLR
02:13 32.1 °F 24.1 °F 29.73 in Calm     72 % 0.00 in 0.0 W/m2 CLR
02:18 32.3 °F 23.9 °F 29.73 in Calm     71 % 0.00 in 0.0 W/m2 CLR
02:23 32.4 °F 24.0 °F 29.73 in Calm     71 % 0.00 in 0.0 W/m2 CLR
02:33 32.1 °F 24.1 °F 29.73 in Calm     72 % 0.00 in 0.0 W/m2 CLR
02:38 31.9 °F 23.9 °F 29.73 in Calm     72 % 0.00 in 0.0 W/m2 CLR
02:43 31.8 °F 24.1 °F 29.73 in SSW 0.8 mph 1.2 mph 73 % 0.00 in 0.0 W/m2 CLR
02:48 32.2 °F 24.5 °F 29.73 in West 3.2 mph 6.9 mph 73 % 0.00 in 0.0 W/m2 CLR
02:53 32.7 °F 24.7 °F 29.73 in West 0.4 mph 2.3 mph 72 % 0.00 in 0.0 W/m2 CLR
02:58 33.0 °F 24.6 °F 29.72 in Calm     71 % 0.00 in 0.0 W/m2 CLR
03:03 33.1 °F 24.4 °F 29.72 in Calm     70 % 0.00 in 0.0 W/m2 CLR
03:09 33.0 °F 24.3 °F 29.72 in Calm     70 % 0.00 in 0.0 W/m2 CLR
03:14 32.8 °F 24.1 °F 29.72 in Calm     70 % 0.00 in 0.0 W/m2 CLR
03:19 32.4 °F 24.0 °F 29.72 in Calm     71 % 0.00 in 0.0 W/m2 CLR
03:24 32.3 °F 23.9 °F 29.72 in Calm     71 % 0.00 in 0.0 W/m2 CLR
03:29 32.2 °F 23.8 °F 29.72 in Calm     71 % 0.00 in 0.0 W/m2 CLR
03:34 31.9 °F 23.9 °F 29.72 in Calm     72 % 0.00 in 0.0 W/m2 CLR
03:39 31.9 °F 23.9 °F 29.72 in West 1.4 mph 2.3 mph 72 % 0.00 in 0.0 W/m2 CLR
03:44 32.0 °F 24.0 °F 29.72 in West 0.1 mph 2.3 mph 72 % 0.00 in 0.0 W/m2 CLR
03:49 32.0 °F 24.0 °F 29.72 in Calm     72 % 0.00 in 0.0 W/m2 CLR
03:54 31.8 °F 23.8 °F 29.72 in Calm     72 % 0.00 in 0.0 W/m2 CLR
03:59 31.7 °F 23.7 °F 29.72 in Calm     72 % 0.00 in 0.0 W/m2 CLR
04:04 31.6 °F 23.6 °F 29.72 in Calm     72 % 0.00 in 0.0 W/m2 CLR
04:09 31.6 °F 23.9 °F 29.72 in Calm     73 % 0.00 in 0.0 W/m2 CLR
04:14 31.4 °F 23.7 °F 29.72 in Calm     73 % 0.00 in 0.0 W/m2 CLR
04:19 31.3 °F 24.0 °F 29.72 in Calm     74 % 0.00 in 0.0 W/m2 CLR
04:24 31.2 °F 23.9 °F 29.72 in Calm     74 % 0.00 in 0.0 W/m2 CLR
04:29 31.3 °F 24.0 °F 29.72 in Calm     74 % 0.00 in 0.0 W/m2 CLR
04:34 31.2 °F 23.9 °F 29.72 in Calm     74 % 0.00 in 0.0 W/m2 CLR
04:39 31.1 °F 24.1 °F 29.72 in Calm     75 % 0.00 in 0.0 W/m2 CLR
04:44 31.2 °F 24.2 °F 29.72 in Calm     75 % 0.00 in 0.0 W/m2 CLR
04:49 31.2 °F 24.2 °F 29.72 in Calm     75 % 0.00 in 0.0 W/m2 CLR
04:54 31.1 °F 24.1 °F 29.72 in Calm     75 % 0.00 in 0.0 W/m2 CLR
04:59 31.0 °F 24.0 °F 29.72 in Calm     75 % 0.00 in 0.0 W/m2 CLR
05:04 30.9 °F 24.2 °F 29.72 in Calm     76 % 0.00 in 0.0 W/m2 CLR
05:09 31.0 °F 24.3 °F 29.72 in Calm     76 % 0.00 in 0.0 W/m2 CLR
05:14 31.1 °F 24.4 °F 29.72 in Calm     76 % 0.00 in 0.0 W/m2 CLR
05:19 31.0 °F 24.3 °F 29.72 in Calm     76 % 0.00 in 0.0 W/m2 CLR
05:24 31.1 °F 24.4 °F 29.72 in Calm     76 % 0.00 in 0.0 W/m2 CLR
05:29 31.1 °F 24.4 °F 29.72 in Calm     76 % 0.00 in 0.0 W/m2 CLR
05:34 31.2 °F 24.5 °F 29.72 in Calm     76 % 0.00 in 0.0 W/m2 CLR
05:39 31.3 °F 24.6 °F 29.72 in West 1.0 mph 2.3 mph 76 % 0.00 in 0.0 W/m2 CLR
05:44 31.6 °F 24.6 °F 29.72 in West 0.8 mph 3.0 mph 75 % 0.00 in 0.0 W/m2 CLR
05:49 31.8 °F 24.8 °F 29.72 in West 2.3 mph 3.5 mph 75 % 0.00 in 0.0 W/m2 CLR
05:54 31.9 °F 24.6 °F 29.72 in West 3.2 mph 5.8 mph 74 % 0.00 in 0.0 W/m2 CLR
05:59 32.0 °F 24.6 °F 29.72 in West 3.7 mph 6.9 mph 74 % 0.00 in 0.0 W/m2 CLR
06:04 32.1 °F 24.4 °F 29.73 in West 3.2 mph 5.8 mph 73 % 0.00 in 0.0 W/m2 CLR
06:09 32.0 °F 24.3 °F 29.73 in West 1.7 mph 3.5 mph 73 % 0.00 in 0.0 W/m2 CLR
06:14 32.0 °F 24.3 °F 29.73 in WSW 1.7 mph 3.5 mph 73 % 0.00 in 0.0 W/m2 CLR
06:19 32.0 °F 24.3 °F 29.73 in WSW 3.8 mph 9.2 mph 73 % 0.00 in 0.0 W/m2 CLR
06:24 32.0 °F 24.3 °F 29.73 in West 3.2 mph 5.8 mph 73 % 0.00 in 0.0 W/m2 CLR
06:29 32.0 °F 24.3 °F 29.73 in WSW 2.1 mph 3.5 mph 73 % 0.00 in 0.0 W/m2 CLR
06:34 32.0 °F 24.3 °F 29.74 in WSW 1.6 mph 3.5 mph 73 % 0.00 in 0.0 W/m2 CLR
06:39 32.0 °F 24.3 °F 29.74 in WSW 0.8 mph 6.9 mph 73 % 0.00 in 0.0 W/m2 CLR
06:44 32.0 °F 24.3 °F 29.74 in WSW 0.2 mph 2.0 mph 73 % 0.00 in 0.0 W/m2 CLR
06:49 32.0 °F 24.3 °F 29.74 in SW 1.4 mph 3.5 mph 73 % 0.00 in 0.0 W/m2 CLR
07:00 32.2 °F 24.8 °F 29.75 in WSW 0.6 mph 2.3 mph 74 % 0.00 in 0.0 W/m2 OVC
07:05 32.2 °F 24.8 °F 29.75 in WSW 0.2 mph 2.3 mph 74 % 0.00 in 0.0 W/m2 OVC
07:11 32.2 °F 24.8 °F 29.75 in WSW 1.2 mph 3.5 mph 74 % 0.00 in 0.0 W/m2 OVC
07:16 32.2 °F 24.8 °F 29.75 in WSW 0.9 mph 3.5 mph 74 % 0.00 in 0.0 W/m2 OVC
07:21 32.1 °F 24.7 °F 29.75 in WSW 1.2 mph 3.5 mph 74 % 0.00 in 7.0 W/m2 OVC
07:26 32.1 °F 24.7 °F 29.75 in WSW 2.0 mph 4.6 mph 74 % 0.00 in 11.0 W/m2 OVC
07:31 32.0 °F 24.6 °F 29.75 in WSW 4.3 mph 11.0 mph 74 % 0.00 in 12.0 W/m2 OVC
07:36 32.0 °F 24.3 °F 29.76 in West 5.4 mph 11.5 mph 73 % 0.00 in 16.0 W/m2 CLR
07:46 32.5 °F 23.1 °F 29.76 in West 5.1 mph 8.0 mph 68 % 0.00 in 25.0 W/m2 CLR
07:53 32.7 °F 22.6 °F 29.76 in WSW 5.0 mph 9.2 mph 66 % 0.00 in 28.0 W/m2 FEW
08:11 33.1 °F 20.3 °F 29.76 in NW 6.7 mph 9.0 mph 59 % 0.00 in 53.0 W/m2 FEW
08:16 33.2 °F 19.6 °F 29.76 in WSW 5.2 mph 12.0 mph 57 % 0.00 in 47.0 W/m2 SCT
08:23 33.2 °F 18.3 °F 29.76 in West 5.0 mph 9.2 mph 54 % 0.00 in 37.0 W/m2 BKN
08:28 33.2 °F 17.9 °F 29.75 in West 7.6 mph 10.4 mph 53 % 0.00 in 33.0 W/m2 BKN
08:33 33.3 °F 17.1 °F 29.75 in West 10.5 mph 15.0 mph 51 % 0.00 in 35.0 W/m2 BKN
08:40 33.5 °F 16.8 °F 29.76 in WNW 8.7 mph 15.0 mph 50 % 0.00 in 33.0 W/m2 OVC
08:47 33.6 °F 16.9 °F 29.76 in WNW 4.3 mph 11.5 mph 50 % 0.00 in 40.0 W/m2 OVC
08:52 33.6 °F 16.9 °F 29.77 in WNW 6.3 mph 11.5 mph 50 % 0.00 in 47.0 W/m2 OVC
08:58 33.6 °F 16.5 °F 29.76 in WNW 5.6 mph 11.5 mph 49 % 0.00 in 51.0 W/m2 BKN
09:03 33.8 °F 16.6 °F 29.77 in WNW 10.4 mph 15.0 mph 49 % 0.00 in 54.0 W/m2 BKN
09:08 33.8 °F 16.6 °F 29.77 in SW 7.1 mph 11.5 mph 49 % 0.00 in 51.0 W/m2 OVC
09:13 33.8 °F 17.1 °F 29.78 in WSW 3.9 mph 9.2 mph 50 % 0.00 in 65.0 W/m2 BKN
09:20 33.6 °F 17.4 °F 29.78 in WSW 3.9 mph 6.9 mph 51 % 0.00 in 102.0 W/m2 BKN
09:25 33.6 °F 18.3 °F 29.78 in SW 2.8 mph 5.8 mph 53 % 0.00 in 109.0 W/m2 BKN
09:30 33.4 °F 18.9 °F 29.78 in WSW 4.6 mph 7.0 mph 55 % 0.00 in 111.0 W/m2 BKN
09:35 33.3 °F 19.3 °F 29.78 in West 3.2 mph 8.1 mph 56 % 0.00 in 109.0 W/m2 BKN
09:40 33.4 °F 19.4 °F 29.78 in West 1.8 mph 3.5 mph 56 % 0.00 in 90.0 W/m2 BKN
09:45 33.4 °F 19.8 °F 29.79 in WSW 5.0 mph 9.2 mph 57 % 0.00 in 116.0 W/m2 BKN
09:50 33.2 °F 20.0 °F 29.78 in SW 3.0 mph 6.0 mph 58 % 0.00 in 153.0 W/m2 SCT
09:55 33.3 °F 20.5 °F 29.78 in WSW 3.4 mph 7.0 mph 59 % 0.00 in 158.0 W/m2 SCT
10:00 33.4 °F 21.0 °F 29.78 in WSW 3.5 mph 5.8 mph 60 % 0.00 in 248.0 W/m2 FEW
10:05 33.7 °F 21.3 °F 29.79 in SW 4.0 mph 5.8 mph 60 % 0.00 in 250.0 W/m2 FEW
10:10 34.3 °F 21.8 °F 29.79 in SW 3.3 mph 4.6 mph 60 % 0.00 in 250.0 W/m2 CLR
10:15 34.6 °F 21.7 °F 29.78 in SW 6.2 mph 6.9 mph 59 % 0.00 in 288.0 W/m2 CLR
10:20 34.7 °F 21.4 °F 29.78 in SW 7.9 mph 11.5 mph 58 % 0.00 in 264.0 W/m2 SCT
10:25 35.0 °F 21.7 °F 29.78 in SW 4.5 mph 11.5 mph 58 % 0.00 in 209.0 W/m2 SCT
10:31 35.1 °F 21.8 °F 29.78 in WSW 1.4 mph 6.9 mph 58 % 0.00 in 146.0 W/m2 BKN
10:36 35.2 °F 21.9 °F 29.78 in West 5.6 mph 8.0 mph 58 % 0.00 in 141.0 W/m2 BKN
10:41 35.2 °F 21.9 °F 29.78 in SW 4.0 mph 10.4 mph 58 % 0.00 in 156.0 W/m2 BKN
10:46 35.3 °F 22.0 °F 29.78 in WSW 7.6 mph 11.5 mph 58 % 0.00 in 223.0 W/m2 SCT
10:51 35.5 °F 22.2 °F 29.78 in West 5.4 mph 8.1 mph 58 % 0.00 in 246.0 W/m2 SCT
10:57 35.9 °F 22.5 °F 29.78 in WSW 7.1 mph 11.5 mph 58 % 0.00 in 297.0 W/m2 FEW
11:03 36.2 °F 22.4 °F 29.78 in West 8.1 mph 11.5 mph 57 % 0.00 in 292.0 W/m2 SCT
11:08 36.3 °F 22.5 °F 29.78 in WSW 4.7 mph 8.1 mph 57 % 0.00 in 216.0 W/m2 SCT
11:13 36.5 °F 22.7 °F 29.77 in WSW 6.6 mph 13.8 mph 57 % 0.00 in 192.0 W/m2 BKN
11:18 36.3 °F 22.5 °F 29.77 in SW 9.0 mph 15.0 mph 57 % 0.00 in 139.0 W/m2 BKN
11:23 35.9 °F 22.5 °F 29.77 in West 5.5 mph 12.7 mph 58 % 0.00 in 121.0 W/m2 OVC
11:28 35.7 °F 22.4 °F 29.77 in West 4.4 mph 8.1 mph 58 % 0.00 in 149.0 W/m2 BKN
11:33 35.8 °F 22.9 °F 29.77 in WSW 6.4 mph 11.5 mph 59 % 0.00 in 199.0 W/m2 BKN
11:38 36.0 °F 23.0 °F 29.76 in WSW 3.9 mph 5.8 mph 59 % 0.00 in 279.0 W/m2 SCT
11:43 36.2 °F 22.8 °F 29.76 in WSW 5.1 mph 11.0 mph 58 % 0.00 in 294.0 W/m2 SCT
11:48 36.3 °F 23.3 °F 29.76 in SW 5.9 mph 10.4 mph 59 % 0.00 in 373.0 W/m2 FEW
11:53 36.7 °F 23.3 °F 29.76 in WSW 8.4 mph 11.5 mph 58 % 0.00 in 401.0 W/m2 CLR
11:58 37.0 °F 23.2 °F 29.75 in West 4.2 mph 11.5 mph 57 % 0.00 in 357.0 W/m2 FEW
12:03 37.1 °F 23.3 °F 29.75 in West 6.2 mph 11.5 mph 57 % 0.00 in 357.0 W/m2 FEW
12:08 37.6 °F 23.7 °F 29.75 in West 9.1 mph 11.5 mph 57 % 0.00 in 434.0 W/m2 CLR
12:13 37.4 °F 23.5 °F 29.75 in West 8.7 mph 12.7 mph 57 % 0.00 in 265.0 W/m2 SCT
12:18 37.0 °F 23.2 °F 29.75 in West 8.0 mph 16.0 mph 57 % 0.00 in 179.0 W/m2 BKN
12:23 36.6 °F 23.2 °F 29.75 in West 7.5 mph 11.5 mph 58 % 0.00 in 128.0 W/m2 BKN
12:28 36.5 °F 23.1 °F 29.75 in West 8.1 mph 11.0 mph 58 % 0.00 in 104.0 W/m2 OVC
12:33 36.3 °F 22.9 °F 29.75 in West 7.6 mph 11.5 mph 58 % 0.00 in 97.0 W/m2 OVC
12:38 36.2 °F 22.8 °F 29.74 in WSW 9.4 mph 11.5 mph 58 % 0.00 in 195.0 W/m2 BKN
12:43 36.2 °F 22.0 °F 29.74 in West 5.4 mph 9.2 mph 56 % 0.00 in 299.0 W/m2 SCT
12:48 36.8 °F 22.6 °F 29.74 in West 6.7 mph 10.4 mph 56 % 0.00 in 388.0 W/m2 FEW
12:53 37.2 °F 22.5 °F 29.73 in WSW 8.6 mph 12.7 mph 55 % 0.00 in 390.0 W/m2 FEW
12:58 36.8 °F 21.3 °F 29.73 in WSW 5.7 mph 8.0 mph 53 % 0.00 in 348.0 W/m2 FEW
13:03 37.3 °F 21.7 °F 29.73 in West 3.3 mph 10.0 mph 53 % 0.00 in 274.0 W/m2 FEW
13:08 37.6 °F 21.1 °F 29.72 in WSW 5.9 mph 8.1 mph 51 % 0.00 in 383.0 W/m2 FEW
13:13 37.7 °F 21.6 °F 29.72 in WSW 4.3 mph 10.4 mph 52 % 0.00 in 394.0 W/m2 CLR
13:18 38.2 °F 22.1 °F 29.72 in SW 5.4 mph 8.1 mph 52 % 0.00 in 334.0 W/m2 CLR
13:23 38.0 °F 22.4 °F 29.72 in West 5.4 mph 12.0 mph 53 % 0.00 in 225.0 W/m2 SCT
13:28 37.7 °F 22.1 °F 29.72 in WNW 4.2 mph 8.1 mph 53 % 0.00 in 313.0 W/m2 SCT
13:33 38.6 °F 21.1 °F 29.71 in NW 12.5 mph 16.1 mph 49 % 0.00 in 271.0 W/m2 FEW
13:38 39.2 °F 21.1 °F 29.72 in WNW 12.9 mph 17.3 mph 48 % 0.00 in 543.0 W/m2 CLR
13:43 39.1 °F 21.0 °F 29.71 in WSW 3.1 mph 11.5 mph 48 % 0.00 in 410.0 W/m2 CLR
13:48 39.2 °F 21.6 °F 29.71 in WSW 10.1 mph 13.8 mph 49 % 0.00 in 445.0 W/m2 CLR
13:53 39.4 °F 21.3 °F 29.71 in West 8.9 mph 16.1 mph 48 % 0.00 in 269.0 W/m2 SCT
13:58 38.9 °F 20.9 °F 29.71 in WSW 8.8 mph 13.8 mph 48 % 0.00 in 436.0 W/m2 FEW
14:03 39.2 °F 21.1 °F 29.71 in West 9.2 mph 11.5 mph 48 % 0.00 in 468.0 W/m2 CLR
14:08 39.2 °F 20.6 °F 29.71 in West 10.9 mph 20.0 mph 47 % 0.00 in 475.0 W/m2 CLR
14:13 39.0 °F 20.9 °F 29.72 in SW 7.7 mph 10.4 mph 48 % 0.00 in 406.0 W/m2 CLR
14:18 39.1 °F 21.5 °F 29.71 in WSW 5.5 mph 11.5 mph 49 % 0.00 in 190.0 W/m2 SCT
14:23 38.5 °F 21.0 °F 29.71 in West 8.6 mph 11.5 mph 49 % 0.00 in 144.0 W/m2 BKN
14:28 38.3 °F 20.3 °F 29.72 in WSW 8.2 mph 10.4 mph 48 % 0.00 in 128.0 W/m2 BKN
14:33 38.2 °F 20.7 °F 29.72 in West 9.0 mph 15.0 mph 49 % 0.00 in 139.0 W/m2 BKN
14:38 38.0 °F 20.5 °F 29.72 in WSW 6.8 mph 10.4 mph 49 % 0.00 in 107.0 W/m2 BKN
14:43 38.0 °F 21.5 °F 29.72 in WSW 4.5 mph 6.9 mph 51 % 0.00 in 90.0 W/m2 BKN
14:48 38.1 °F 21.5 °F 29.72 in WSW 1.7 mph 10.4 mph 51 % 0.00 in 104.0 W/m2 BKN
14:54 38.1 °F 21.5 °F 29.72 in West 4.5 mph 12.7 mph 51 % 0.00 in 121.0 W/m2 BKN
14:59 38.2 °F 21.6 °F 29.72 in NW 7.0 mph 10.4 mph 51 % 0.00 in 248.0 W/m2 SCT
15:04 38.4 °F 21.4 °F 29.72 in West 8.7 mph 12.7 mph 50 % 0.00 in 193.0 W/m2 FEW
15:09 38.4 °F 20.9 °F 29.73 in SW 6.2 mph 13.8 mph 49 % 0.00 in 146.0 W/m2 SCT
15:14 38.3 °F 20.8 °F 29.72 in West 7.8 mph 12.7 mph 49 % 0.00 in 142.0 W/m2 SCT
15:19 38.4 °F 21.4 °F 29.73 in SW 2.4 mph 4.6 mph 50 % 0.00 in 239.0 W/m2 FEW
15:24 38.9 °F 22.3 °F 29.73 in WSW 6.9 mph 6.9 mph 51 % 0.00 in 410.0 W/m2 CLR
15:29 39.0 °F 21.9 °F 29.72 in WSW 6.5 mph 11.5 mph 50 % 0.00 in 294.0 W/m2 CLR
15:34 38.9 °F 21.8 °F 29.73 in SW 10.5 mph 12.7 mph 50 % 0.00 in 322.0 W/m2 CLR
15:39 39.0 °F 21.9 °F 29.73 in SSW 6.5 mph 11.5 mph 50 % 0.00 in 332.0 W/m2 CLR
15:44 39.1 °F 22.5 °F 29.73 in SW 5.6 mph 11.5 mph 51 % 0.00 in 271.0 W/m2 CLR
15:49 38.8 °F 22.2 °F 29.73 in WSW 6.6 mph 10.4 mph 51 % 0.00 in 237.0 W/m2 CLR
15:55 39.0 °F 22.8 °F 29.73 in WSW 5.8 mph 10.0 mph 52 % 0.00 in 190.0 W/m2 CLR
16:00 38.6 °F 22.0 °F 29.73 in West 5.7 mph 10.4 mph 51 % 0.00 in 95.0 W/m2 FEW
16:05 38.1 °F 21.5 °F 29.73 in WSW 5.0 mph 8.1 mph 51 % 0.00 in 77.0 W/m2 SCT
16:10 37.9 °F 21.8 °F 29.73 in WSW 3.2 mph 5.8 mph 52 % 0.00 in 63.0 W/m2 SCT
16:15 37.5 °F 21.9 °F 29.73 in WSW 5.3 mph 10.4 mph 53 % 0.00 in 79.0 W/m2 SCT
16:23 37.3 °F 22.6 °F 29.73 in WSW 1.6 mph 4.6 mph 55 % 0.00 in 47.0 W/m2 SCT
16:28 37.2 °F 22.5 °F 29.73 in SW 4.8 mph 10.4 mph 55 % 0.00 in 40.0 W/m2 SCT
16:33 37.1 °F 22.4 °F 29.73 in West 2.9 mph 3.5 mph 55 % 0.00 in 42.0 W/m2 SCT
16:38 37.1 °F 22.4 °F 29.73 in West 5.0 mph 8.1 mph 55 % 0.00 in 40.0 W/m2 SCT
16:43 37.1 °F 22.4 °F 29.74 in WSW 6.4 mph 9.2 mph 55 % 0.00 in 42.0 W/m2 CLR
16:48 37.1 °F 22.4 °F 29.74 in West 1.6 mph 6.9 mph 55 % 0.00 in 35.0 W/m2 CLR
16:53 37.1 °F 22.4 °F 29.74 in WSW 3.7 mph 5.8 mph 55 % 0.00 in 21.0 W/m2 FEW
16:58 36.9 °F 22.7 °F 29.74 in WSW 0.2 mph 2.3 mph 56 % 0.00 in 16.0 W/m2 FEW
17:03 36.7 °F 22.5 °F 29.74 in WSW 2.9 mph 5.8 mph 56 % 0.00 in 11.0 W/m2 CLR
17:08 36.5 °F 22.7 °F 29.74 in SW 2.3 mph 3.5 mph 57 % 0.00 in 5.0 W/m2 CLR
17:13 36.2 °F 22.8 °F 29.74 in WSW 2.7 mph 8.0 mph 58 % 0.00 in 0.0 W/m2 OVC
17:18 36.0 °F 23.0 °F 29.74 in SW 0.3 mph 3.5 mph 59 % 0.00 in 0.0 W/m2 OVC
17:23 35.9 °F 23.4 °F 29.74 in SW 3.1 mph 4.0 mph 60 % 0.00 in 0.0 W/m2 OVC
17:28 35.8 °F 23.3 °F 29.74 in SW 2.3 mph 3.5 mph 60 % 0.00 in 0.0 W/m2 OVC
17:33 35.7 °F 23.6 °F 29.74 in WSW 3.1 mph 7.0 mph 61 % 0.00 in 0.0 W/m2 OVC
17:38 35.6 °F 23.5 °F 29.74 in WSW 1.8 mph 3.5 mph 61 % 0.00 in 0.0 W/m2 OVC
17:43 35.5 °F 23.8 °F 29.75 in SW 1.3 mph 3.5 mph 62 % 0.00 in 0.0 W/m2 OVC
17:48 35.4 °F 23.7 °F 29.75 in West 2.8 mph 3.5 mph 62 % 0.00 in 0.0 W/m2 CLR
17:53 35.4 °F 24.0 °F 29.75 in WSW 0.4 mph 3.5 mph 63 % 0.00 in 0.0 W/m2 CLR
17:58 35.3 °F 24.0 °F 29.75 in SW 3.2 mph 5.8 mph 63 % 0.00 in 0.0 W/m2 CLR
18:03 35.2 °F 23.9 °F 29.75 in WSW 0.9 mph 3.5 mph 63 % 0.00 in 0.0 W/m2 CLR
18:08 35.1 °F 24.1 °F 29.75 in WSW 1.3 mph 4.0 mph 64 % 0.00 in 0.0 W/m2 CLR
18:13 35.0 °F 24.0 °F 29.75 in WSW 1.6 mph 3.5 mph 64 % 0.00 in 0.0 W/m2 CLR
18:18 34.9 °F 23.9 °F 29.75 in WSW 0.1 mph 3.5 mph 64 % 0.00 in 0.0 W/m2 CLR
18:23 34.8 °F 24.2 °F 29.75 in WSW 0.7 mph 3.5 mph 65 % 0.00 in 0.0 W/m2 CLR
18:28 34.8 °F 24.2 °F 29.75 in West 2.0 mph 3.5 mph 65 % 0.00 in 0.0 W/m2 CLR
18:33 34.7 °F 24.1 °F 29.75 in SW 3.2 mph 4.6 mph 65 % 0.00 in 0.0 W/m2 CLR
18:38 34.6 °F 24.0 °F 29.75 in WSW 2.0 mph 4.6 mph 65 % 0.00 in 0.0 W/m2 CLR
18:43 34.5 °F 23.9 °F 29.75 in WSW 0.5 mph 2.3 mph 65 % 0.00 in 0.0 W/m2 CLR
18:49 34.4 °F 24.2 °F 29.76 in WSW 1.9 mph 3.5 mph 66 % 0.00 in 0.0 W/m2 CLR
18:54 34.2 °F 24.0 °F 29.76 in WSW 1.1 mph 3.5 mph 66 % 0.00 in 0.0 W/m2 CLR
18:59 34.1 °F 23.9 °F 29.76 in WSW 0.2 mph 1.2 mph 66 % 0.00 in 0.0 W/m2 CLR
19:04 34.0 °F 24.2 °F 29.76 in WSW 0.4 mph 3.5 mph 67 % 0.00 in 0.0 W/m2 CLR
19:09 33.9 °F 24.1 °F 29.76 in SW 0.1 mph 3.5 mph 67 % 0.00 in 0.0 W/m2 CLR
19:14 33.7 °F 23.9 °F 29.76 in WSW 2.9 mph 3.5 mph 67 % 0.00 in 0.0 W/m2 CLR
19:19 33.6 °F 23.8 °F 29.76 in WSW 0.4 mph 2.3 mph 67 % 0.00 in 0.0 W/m2 CLR
19:24 33.5 °F 24.1 °F 29.76 in WSW 0.2 mph 2.3 mph 68 % 0.00 in 0.0 W/m2 CLR
19:29 33.4 °F 24.0 °F 29.76 in Calm   3.5 mph 68 % 0.00 in 0.0 W/m2 CLR
19:34 33.4 °F 24.0 °F 29.75 in Calm     68 % 0.00 in 0.0 W/m2 CLR
19:39 33.3 °F 24.2 °F 29.76 in WSW 0.3 mph   69 % 0.00 in 0.0 W/m2 CLR
19:44 33.1 °F 24.0 °F 29.76 in Calm     69 % 0.00 in 0.0 W/m2 CLR
19:49 32.8 °F 23.7 °F 29.76 in Calm     69 % 0.00 in 0.0 W/m2 CLR
19:54 32.7 °F 24.0 °F 29.76 in Calm     70 % 0.00 in 0.0 W/m2 CLR
19:59 32.4 °F 23.7 °F 29.76 in Calm     70 % 0.00 in 0.0 W/m2 CLR
20:04 32.2 °F 23.8 °F 29.76 in Calm   1.2 mph 71 % 0.00 in 0.0 W/m2 CLR
20:09 32.0 °F 23.7 °F 29.76 in West 0.1 mph 1.2 mph 71 % 0.00 in 0.0 W/m2 CLR
20:14 32.0 °F 24.0 °F 29.76 in Calm     72 % 0.00 in 0.0 W/m2 CLR
20:19 32.0 °F 24.0 °F 29.76 in West 0.1 mph 1.2 mph 72 % 0.00 in 0.0 W/m2 CLR
20:24 32.0 °F 24.0 °F 29.76 in Calm     72 % 0.00 in 0.0 W/m2 CLR
20:29 31.8 °F 23.8 °F 29.76 in Calm     72 % 0.00 in 0.0 W/m2 CLR
20:34 31.8 °F 24.1 °F 29.76 in Calm     73 % 0.00 in 0.0 W/m2 CLR
20:39 31.7 °F 24.0 °F 29.76 in Calm     73 % 0.00 in 0.0 W/m2 CLR
20:44 31.5 °F 23.8 °F 29.76 in Calm     73 % 0.00 in 0.0 W/m2 CLR
20:49 31.4 °F 23.7 °F 29.76 in Calm     73 % 0.00 in 0.0 W/m2 CLR
20:54 31.4 °F 23.7 °F 29.75 in Calm     73 % 0.00 in 0.0 W/m2 CLR
20:59 31.4 °F 23.7 °F 29.75 in Calm     73 % 0.00 in 0.0 W/m2 CLR
21:04 31.3 °F 24.0 °F 29.76 in Calm     74 % 0.00 in 0.0 W/m2 CLR
21:09 31.3 °F 24.0 °F 29.76 in Calm   1.2 mph 74 % 0.00 in 0.0 W/m2 CLR
21:14 31.2 °F 23.5 °F 29.76 in Calm     73 % 0.00 in 0.0 W/m2 CLR
21:20 31.1 °F 23.8 °F 29.76 in Calm     74 % 0.00 in 0.0 W/m2 CLR
21:25 31.0 °F 23.7 °F 29.76 in West 0.1 mph 1.0 mph 74 % 0.00 in 0.0 W/m2 CLR
21:30 31.0 °F 23.7 °F 29.76 in Calm     74 % 0.00 in 0.0 W/m2 CLR
21:35 30.9 °F 23.6 °F 29.76 in Calm     74 % 0.00 in 0.0 W/m2 CLR
21:40 30.9 °F 23.6 °F 29.76 in WSW 0.8 mph 2.3 mph 74 % 0.00 in 0.0 W/m2 CLR
21:45 30.9 °F 23.6 °F 29.76 in WSW 0.5 mph 2.3 mph 74 % 0.00 in 0.0 W/m2 CLR
21:50 30.9 °F 23.6 °F 29.76 in Calm     74 % 0.00 in 0.0 W/m2 CLR
21:55 30.9 °F 23.6 °F 29.76 in Calm     74 % 0.00 in 0.0 W/m2 CLR
22:00 30.9 °F 23.6 °F 29.76 in WSW 0.1 mph 1.2 mph 74 % 0.00 in 0.0 W/m2 CLR
22:05 30.9 °F 23.6 °F 29.76 in Calm     74 % 0.00 in 0.0 W/m2 CLR
22:10 31.0 °F 23.7 °F 29.76 in Calm     74 % 0.00 in 0.0 W/m2 CLR
22:17 31.1 °F 23.8 °F 29.76 in Calm     74 % 0.00 in 0.0 W/m2 CLR
22:22 31.0 °F 23.4 °F 29.76 in Calm   1.2 mph 73 % 0.00 in 0.0 W/m2 CLR
22:25 31.1 °F 23.5 °F 29.76 in Calm   3.0 mph 73 % 0.00 in 0.0 W/m2 CLR
22:26 31.1 °F 23.5 °F 29.76 in WSW 0.4 mph 2.3 mph 73 % 0.00 in 0.0 W/m2 CLR
22:27 31.1 °F 23.5 °F 29.76 in WSW 0.3 mph 2.0 mph 73 % 0.00 in 0.0 W/m2 CLR
22:31 31.1 °F 23.5 °F 29.76 in Calm     73 % 0.00 in 0.0 W/m2 CLR
22:36 31.1 °F 23.1 °F 29.76 in WSW 1.2 mph 3.5 mph 72 % 0.00 in 0.0 W/m2 CLR
22:41 31.1 °F 23.1 °F 29.76 in WSW 1.3 mph 2.3 mph 72 % 0.00 in 0.0 W/m2 CLR
22:46 31.1 °F 23.1 °F 29.76 in WSW 0.2 mph 2.3 mph 72 % 0.00 in 0.0 W/m2 CLR
22:51 31.0 °F 23.0 °F 29.76 in Calm     72 % 0.00 in 0.0 W/m2 CLR
22:56 31.0 °F 23.0 °F 29.76 in WSW 1.4 mph 3.5 mph 72 % 0.00 in 0.0 W/m2 CLR
23:01 31.0 °F 23.0 °F 29.76 in WSW 0.3 mph 2.3 mph 72 % 0.00 in 0.0 W/m2 CLR
23:06 30.9 °F 22.9 °F 29.76 in Calm     72 % 0.00 in 0.0 W/m2 CLR
23:11 30.8 °F 22.8 °F 29.76 in WSW 0.8 mph 3.0 mph 72 % 0.00 in 0.0 W/m2 CLR
23:16 30.9 °F 22.9 °F 29.76 in WSW 0.6 mph 2.3 mph 72 % 0.00 in 0.0 W/m2 CLR
23:21 30.9 °F 22.9 °F 29.76 in WSW 0.2 mph 1.2 mph 72 % 0.00 in 0.0 W/m2 CLR
23:26 30.7 °F 22.4 °F 29.76 in Calm   1.2 mph 71 % 0.00 in 0.0 W/m2 CLR
23:31 30.7 °F 22.7 °F 29.76 in Calm     72 % 0.00 in 0.0 W/m2 CLR
23:36 30.5 °F 22.5 °F 29.76 in WSW 0.5 mph 2.3 mph 72 % 0.00 in 0.0 W/m2 CLR
23:41 30.5 °F 22.5 °F 29.76 in Calm     72 % 0.00 in 0.0 W/m2 CLR
23:46 30.5 °F 22.5 °F 29.76 in WSW 0.3 mph 2.3 mph 72 % 0.00 in 0.0 W/m2 CLR
23:51 30.6 °F 22.6 °F 29.76 in WSW 0.1 mph   72 % 0.00 in 0.0 W/m2 CLR
23:56 30.6 °F 22.3 °F 29.77 in WSW 0.2 mph 2.3 mph 71 % 0.00 in 0.0 W/m2 CLR
Air Products Campus Weather
Compliments of Weather Underground - 3.25 mb